createdAt,value
2023-05-07T00:01:20.107Z,100981.31
2023-05-07T00:03:46.965Z,100974.19
2023-05-07T00:06:13.949Z,100975.22
2023-05-07T00:08:40.382Z,100974.59
2023-05-07T00:11:07.009Z,100972.09
2023-05-07T00:13:36.262Z,100969.78
2023-05-07T00:16:04.174Z,100976.22
2023-05-07T00:18:30.780Z,100976.59
2023-05-07T00:20:57.357Z,100973.25
2023-05-07T00:23:24.236Z,100978.22
2023-05-07T00:25:50.655Z,100972.38
2023-05-07T00:28:17.079Z,100979.22
2023-05-07T00:30:43.602Z,100979.59
2023-05-07T00:33:10.145Z,100975.78
2023-05-07T00:35:36.610Z,100978.03
2023-05-07T00:38:03.115Z,100979.47
2023-05-07T00:40:29.567Z,100988.84
2023-05-07T00:42:59.124Z,100991.72
2023-05-07T00:45:29.856Z,100992.56
2023-05-07T00:47:59.265Z,100997.16
2023-05-07T00:50:27.593Z,100980.22
2023-05-07T00:52:54.545Z,100983.31
2023-05-07T00:55:21.264Z,100982.88
2023-05-07T00:57:47.812Z,100977.19
2023-05-07T01:00:14.819Z,100987.78
2023-05-07T01:02:42.029Z,100993.09
2023-05-07T01:05:12.451Z,101003.84
2023-05-07T01:07:41.625Z,100999.00
2023-05-07T01:10:09.988Z,100998.94
2023-05-07T01:12:38.571Z,100994.91
2023-05-07T01:15:06.564Z,101000.72
2023-05-07T01:17:37.527Z,100996.53
2023-05-07T01:20:05.994Z,100989.59
2023-05-07T01:22:34.609Z,100987.94
2023-05-07T01:25:02.570Z,100983.53
2023-05-07T01:27:29.192Z,100972.69
2023-05-07T01:29:56.569Z,100988.50
2023-05-07T01:32:30.109Z,100987.00
2023-05-07T01:34:58.479Z,100989.44
2023-05-07T01:37:26.519Z,100987.94
2023-05-07T01:39:54.139Z,100979.38
2023-05-07T01:42:20.815Z,100980.78
2023-05-07T01:44:47.425Z,100985.72
2023-05-07T01:47:15.113Z,100980.69
2023-05-07T01:49:43.060Z,100978.16
2023-05-07T01:52:11.655Z,100978.53
2023-05-07T01:54:38.391Z,100979.75
2023-05-07T01:57:04.766Z,100975.72
2023-05-07T01:59:31.201Z,100983.00
2023-05-07T02:01:57.604Z,100983.41
2023-05-07T02:04:24.246Z,100987.97
2023-05-07T02:06:50.878Z,100982.94
2023-05-07T02:09:18.716Z,100983.28
2023-05-07T02:11:45.369Z,100986.19
2023-05-07T02:14:12.026Z,100983.88
2023-05-07T02:16:38.476Z,100981.50
2023-05-07T02:19:04.872Z,100986.47
2023-05-07T02:21:31.381Z,100977.06
2023-05-07T02:23:57.859Z,100988.22
2023-05-07T02:26:24.206Z,100989.63
2023-05-07T02:28:50.734Z,100990.16
2023-05-07T02:31:17.139Z,100991.59
2023-05-07T02:33:43.609Z,100988.19
2023-05-07T02:36:10.963Z,100992.09
2023-05-07T02:38:37.722Z,100986.84
2023-05-07T02:41:04.245Z,100996.00
2023-05-07T02:43:30.668Z,100990.75
2023-05-07T02:46:03.928Z,100997.88
2023-05-07T02:48:30.513Z,100997.38
2023-05-07T02:50:56.929Z,101001.28
2023-05-07T02:53:23.460Z,101000.81
2023-05-07T02:55:49.990Z,101001.84
2023-05-07T02:58:16.428Z,101002.03
2023-05-07T03:00:42.894Z,100999.50
2023-05-07T03:03:09.442Z,100997.81
2023-05-07T03:05:36.033Z,100998.00
2023-05-07T03:08:02.497Z,101003.59
2023-05-07T03:10:28.935Z,100998.56
2023-05-07T03:12:55.368Z,100991.66
2023-05-07T03:15:22.636Z,100987.63
2023-05-07T03:17:49.580Z,100987.63
2023-05-07T03:20:16.370Z,100988.81
2023-05-07T03:22:43.140Z,100985.44
2023-05-07T03:25:10.317Z,100981.91
2023-05-07T03:27:36.819Z,100983.94
2023-05-07T03:30:03.871Z,100987.84
2023-05-07T03:32:30.252Z,100984.50
2023-05-07T03:34:56.810Z,100986.72
2023-05-07T03:37:23.275Z,100979.81
2023-05-07T03:39:49.632Z,100985.59
2023-05-07T03:42:16.128Z,100986.97
2023-05-07T03:44:42.558Z,100989.38
2023-05-07T03:47:09.008Z,100992.41
2023-05-07T03:49:35.781Z,100989.06
2023-05-07T03:52:02.284Z,100990.06
2023-05-07T03:54:28.732Z,101001.09
2023-05-07T03:56:55.245Z,100994.84
2023-05-07T03:59:21.689Z,100993.16
2023-05-07T04:01:48.159Z,100993.34
2023-05-07T04:04:15.123Z,100999.75
2023-05-07T04:06:42.150Z,101004.31
2023-05-07T04:09:08.728Z,101003.47
2023-05-07T04:11:36.957Z,101009.53
2023-05-07T04:14:03.360Z,101014.75
2023-05-07T04:16:29.810Z,101022.69
2023-05-07T04:18:56.255Z,101018.97
2023-05-07T04:21:22.666Z,101018.13
2023-05-07T04:23:49.515Z,101026.06
2023-05-07T04:26:16.928Z,101029.59
2023-05-07T04:28:43.425Z,101024.84
2023-05-07T04:31:09.948Z,101025.72
2023-05-07T04:33:36.351Z,101017.59
2023-05-07T04:36:04.882Z,101013.03
2023-05-07T04:38:32.429Z,101014.69
2023-05-07T04:41:03.799Z,101012.84
2023-05-07T04:43:30.554Z,101016.56
2023-05-07T04:45:56.957Z,101012.00
2023-05-07T04:48:23.373Z,101020.31
2023-05-07T04:50:50.833Z,101022.34
2023-05-07T04:53:18.600Z,101020.47
2023-05-07T04:55:46.166Z,101016.94
2023-05-07T04:58:13.218Z,101019.44
2023-05-07T05:00:40.271Z,101021.13
2023-05-07T05:03:09.770Z,101027.00
2023-05-07T05:05:36.313Z,101022.28
2023-05-07T05:08:02.756Z,101021.91
2023-05-07T05:10:29.191Z,101032.19
2023-05-07T05:12:55.860Z,101033.50
2023-05-07T05:15:22.566Z,101034.84
2023-05-07T05:17:49.066Z,101033.47
2023-05-07T05:20:15.843Z,101038.16
2023-05-07T05:22:43.307Z,101037.78
2023-05-07T05:25:10.045Z,101042.66
2023-05-07T05:27:36.799Z,101037.72
2023-05-07T05:30:04.252Z,101042.75
2023-05-07T05:32:30.624Z,101049.50
2023-05-07T05:34:57.026Z,101043.72
2023-05-07T05:37:23.727Z,101042.50
2023-05-07T05:39:50.260Z,101041.31
2023-05-07T05:42:16.729Z,101044.69
2023-05-07T05:44:43.074Z,101050.75
2023-05-07T05:47:09.476Z,101047.84
2023-05-07T05:49:36.126Z,101053.09
2023-05-07T05:52:02.746Z,101059.00
2023-05-07T05:54:29.210Z,101054.06
2023-05-07T05:56:55.760Z,101051.84
2023-05-07T05:59:22.298Z,101050.44
2023-05-07T06:01:48.830Z,101049.72
2023-05-07T06:04:15.183Z,101055.59
2023-05-07T06:06:41.704Z,101054.84
2023-05-07T06:09:08.097Z,101057.84
2023-05-07T06:11:34.473Z,101059.84
2023-05-07T06:14:01.193Z,101053.66
2023-05-07T06:16:27.574Z,101065.44
2023-05-07T06:18:54.033Z,101071.78
2023-05-07T06:21:20.458Z,101083.56
2023-05-07T06:23:46.796Z,101082.84
2023-05-07T06:26:13.283Z,101083.09
2023-05-07T06:28:39.651Z,101075.44
2023-05-07T06:31:17.160Z,101087.41
2023-05-07T06:33:45.268Z,101087.84
2023-05-07T06:36:11.682Z,101078.50
2023-05-07T06:38:38.072Z,101080.84
2023-05-07T06:41:04.472Z,101078.41
2023-05-07T06:43:30.812Z,101083.47
2023-05-07T06:45:57.297Z,101087.50
2023-05-07T06:48:23.849Z,101092.34
2023-05-07T06:50:50.379Z,101091.41
2023-05-07T06:53:16.811Z,101092.53
2023-05-07T06:55:43.191Z,101095.97
2023-05-07T06:58:09.608Z,101094.81
2023-05-07T07:00:36.143Z,101098.25
2023-05-07T07:03:02.579Z,101100.84
2023-05-07T07:05:29.188Z,101098.00
2023-05-07T07:07:55.731Z,101100.41
2023-05-07T07:10:22.899Z,101106.38
2023-05-07T07:12:50.375Z,101103.34
2023-05-07T07:15:17.516Z,101112.84
2023-05-07T07:17:44.005Z,101101.84
2023-05-07T07:20:12.265Z,101117.59
2023-05-07T07:22:38.810Z,101110.16
2023-05-07T07:25:05.609Z,101110.88
2023-05-07T07:27:32.020Z,101116.75
2023-05-07T07:29:58.365Z,101112.69
2023-05-07T07:32:24.926Z,101109.81
2023-05-07T07:34:51.333Z,101112.78
2023-05-07T07:37:17.846Z,101110.13
2023-05-07T07:39:44.397Z,101105.75
2023-05-07T07:42:10.791Z,101104.16
2023-05-07T07:44:37.249Z,101097.25
2023-05-07T07:47:03.813Z,101095.00
2023-05-07T07:49:30.256Z,101094.38
2023-05-07T07:51:59.567Z,101099.41
2023-05-07T07:54:26.697Z,101104.25
2023-05-07T07:56:53.277Z,101104.88
2023-05-07T07:59:20.035Z,101106.97
2023-05-07T08:01:46.535Z,101101.97
2023-05-07T08:04:13.080Z,101102.59
2023-05-07T08:06:39.696Z,101105.78
2023-05-07T08:09:06.108Z,101109.75
2023-05-07T08:11:32.510Z,101107.25
2023-05-07T08:13:59.116Z,101108.97
2023-05-07T08:16:26.047Z,101112.53
2023-05-07T08:18:52.435Z,101104.19
2023-05-07T08:21:18.852Z,101094.78
2023-05-07T08:23:45.733Z,101098.16
2023-05-07T08:26:12.271Z,101099.84
2023-05-07T08:28:38.730Z,101103.22
2023-05-07T08:31:05.270Z,101108.66
2023-05-07T08:33:32.107Z,101104.06
2023-05-07T08:35:58.532Z,101110.78
2023-05-07T08:38:25.006Z,101101.13
2023-05-07T08:40:51.418Z,101108.44
2023-05-07T08:43:19.274Z,101109.53
2023-05-07T08:45:46.854Z,101108.47
2023-05-07T08:48:18.139Z,101107.19
2023-05-07T08:50:44.608Z,101111.56
2023-05-07T08:53:11.032Z,101109.44
2023-05-07T08:55:37.474Z,101109.06
2023-05-07T08:58:04.927Z,101109.88
2023-05-07T09:00:31.398Z,101114.47
2023-05-07T09:02:57.867Z,101114.88
2023-05-07T09:05:24.373Z,101116.97
2023-05-07T09:07:53.971Z,101117.16
2023-05-07T09:10:22.022Z,101123.63
2023-05-07T09:12:48.936Z,101124.47
2023-05-07T09:15:15.594Z,101113.50
2023-05-07T09:17:43.335Z,101122.31
2023-05-07T09:20:11.061Z,101117.22
2023-05-07T09:22:38.403Z,101118.63
2023-05-07T09:25:06.986Z,101107.69
2023-05-07T09:27:33.426Z,101107.66
2023-05-07T09:29:59.843Z,101115.00
2023-05-07T09:32:28.191Z,101109.47
2023-05-07T09:34:55.184Z,101109.66
2023-05-07T09:37:21.623Z,101106.91
2023-05-07T09:39:50.102Z,101103.28
2023-05-07T09:42:16.531Z,101108.06
2023-05-07T09:44:48.333Z,101108.47
2023-05-07T09:47:20.498Z,101107.19
2023-05-07T09:49:49.014Z,101102.53
2023-05-07T09:52:15.997Z,101105.91
2023-05-07T09:54:46.135Z,101108.34
2023-05-07T09:57:17.397Z,101103.06
2023-05-07T09:59:44.908Z,101115.38
2023-05-07T10:02:14.019Z,101111.75
2023-05-07T10:04:41.419Z,101108.97
2023-05-07T10:07:08.736Z,101112.28
2023-05-07T10:09:39.361Z,101107.56
2023-05-07T10:12:07.113Z,101108.13
2023-05-07T10:14:34.596Z,101107.00
2023-05-07T10:17:02.530Z,101102.88
2023-05-07T10:19:30.404Z,101100.09
2023-05-07T10:22:04.342Z,101106.28
2023-05-07T10:24:34.997Z,101107.88
2023-05-07T10:27:03.784Z,101117.31
2023-05-07T10:30:04.063Z,101114.91
2023-05-07T10:32:39.894Z,101116.72
2023-05-07T10:35:12.498Z,101108.06
2023-05-07T10:37:39.959Z,101109.75
2023-05-07T10:40:08.322Z,101109.50
2023-05-07T10:42:35.314Z,101109.84
2023-05-07T10:45:17.941Z,101111.69
2023-05-07T10:48:27.986Z,101110.41
2023-05-07T10:51:20.789Z,101110.16
2023-05-07T10:53:47.721Z,101110.84
2023-05-07T10:56:21.487Z,101109.28
2023-05-07T10:58:48.303Z,101108.38
2023-05-07T11:01:15.992Z,101106.38
2023-05-07T11:04:27.169Z,101118.94
2023-05-07T11:07:12.237Z,101116.88
2023-05-07T11:09:53.606Z,101106.75
2023-05-07T11:12:38.576Z,101113.91
2023-05-07T11:15:09.928Z,101103.56
2023-05-07T11:17:54.215Z,101108.56
2023-05-07T11:20:21.433Z,101105.63
2023-05-07T11:22:48.703Z,101109.19
2023-05-07T11:25:20.171Z,101110.88
2023-05-07T11:27:46.901Z,101104.53
2023-05-07T11:30:22.851Z,101105.78
2023-05-07T11:32:49.594Z,101114.75
2023-05-07T11:35:16.703Z,101112.41
2023-05-07T11:37:45.840Z,101101.81
2023-05-07T11:40:14.732Z,101104.69
2023-05-07T11:42:45.101Z,101102.97
2023-05-07T11:45:11.967Z,101100.75
2023-05-07T11:47:38.747Z,101092.19
2023-05-07T11:50:08.302Z,101091.41
2023-05-07T11:52:35.815Z,101103.72
2023-05-07T11:55:04.505Z,101100.38
2023-05-07T11:57:31.143Z,101097.69
2023-05-07T11:59:59.302Z,101090.38
2023-05-07T12:02:26.802Z,101093.34
2023-05-07T12:04:54.113Z,101087.75
2023-05-07T12:07:20.855Z,101084.31
2023-05-07T12:09:48.326Z,101081.31
2023-05-07T12:12:27.409Z,101078.34
2023-05-07T12:14:53.769Z,101082.75
2023-05-07T12:17:21.155Z,101077.50
2023-05-07T12:19:57.335Z,101081.31
2023-05-07T12:22:23.769Z,101089.41
2023-05-07T12:24:57.612Z,101094.31
2023-05-07T12:27:24.274Z,101096.47
2023-05-07T12:29:51.829Z,101092.03
2023-05-07T12:32:21.959Z,101091.19
2023-05-07T12:34:51.970Z,101087.63
2023-05-07T12:37:27.544Z,101092.03
2023-05-07T12:40:08.580Z,101094.53
2023-05-07T12:42:39.516Z,101101.94
2023-05-07T12:45:14.301Z,101101.94
2023-05-07T12:47:48.501Z,101106.13
2023-05-07T12:50:16.517Z,101100.03
2023-05-07T12:52:45.803Z,101103.59
2023-05-07T12:55:15.412Z,101109.56
2023-05-07T12:57:49.520Z,101096.31
2023-05-07T13:00:16.273Z,101098.13
2023-05-07T13:02:47.609Z,101104.06
2023-05-07T13:05:14.454Z,101100.72
2023-05-07T13:07:41.754Z,101101.56
2023-05-07T13:10:08.938Z,101091.19
2023-05-07T13:12:35.975Z,101101.19
2023-05-07T13:15:02.404Z,101089.06
2023-05-07T13:17:28.851Z,101087.06
2023-05-07T13:19:55.299Z,101091.09
2023-05-07T13:22:21.638Z,101094.06
2023-05-07T13:24:48.097Z,101091.78
2023-05-07T13:27:14.495Z,101079.63
2023-05-07T13:29:40.906Z,101089.44
2023-05-07T13:32:07.373Z,101094.81
2023-05-07T13:34:34.248Z,101091.91
2023-05-07T13:37:00.614Z,101090.13
2023-05-07T13:39:27.118Z,101085.81
2023-05-07T13:41:53.615Z,101098.00
2023-05-07T13:44:19.949Z,101093.91
2023-05-07T13:46:46.514Z,101091.75
2023-05-07T13:49:13.865Z,101089.38
2023-05-07T13:51:40.348Z,101086.16
2023-05-07T13:54:06.814Z,101096.63
2023-05-07T13:56:33.519Z,101093.91
2023-05-07T13:59:00.998Z,101098.78
2023-05-07T14:01:28.449Z,101089.63
2023-05-07T14:03:55.141Z,101094.41
2023-05-07T14:06:21.549Z,101090.97
2023-05-07T14:08:47.997Z,101106.25
2023-05-07T14:11:14.397Z,101102.06
2023-05-07T14:13:41.053Z,101096.81
2023-05-07T14:16:07.493Z,101113.28
2023-05-07T14:18:35.428Z,101110.28
2023-05-07T14:21:01.887Z,101109.22
2023-05-07T14:23:28.702Z,101109.81
2023-05-07T14:25:58.130Z,101112.06
2023-05-07T14:28:24.927Z,101109.91
2023-05-07T14:30:51.310Z,101103.84
2023-05-07T14:33:18.119Z,101108.16
2023-05-07T14:35:48.944Z,101113.28
2023-05-07T14:38:16.553Z,101118.06
2023-05-07T14:40:43.208Z,101114.38
2023-05-07T14:43:09.594Z,101113.16
2023-05-07T14:45:36.010Z,101111.13
2023-05-07T14:48:02.932Z,101118.78
2023-05-07T14:50:29.318Z,101125.56
2023-05-07T14:52:55.864Z,101125.44
2023-05-07T14:55:22.422Z,101127.47
2023-05-07T14:57:48.847Z,101122.94
2023-05-07T15:00:15.294Z,101123.03
2023-05-07T15:02:41.749Z,101122.06
2023-05-07T15:05:08.415Z,101129.94
2023-05-07T15:07:35.310Z,101118.59
2023-05-07T15:10:01.921Z,101127.44
2023-05-07T15:12:28.365Z,101119.22
2023-05-07T15:14:54.833Z,101121.47
2023-05-07T15:17:21.254Z,101125.91
2023-05-07T15:19:47.666Z,101136.59
2023-05-07T15:22:14.091Z,101137.44
2023-05-07T15:24:41.886Z,101129.81
2023-05-07T15:27:08.238Z,101133.41
2023-05-07T15:29:34.638Z,101130.91
2023-05-07T15:32:01.109Z,101135.78
2023-05-07T15:34:28.309Z,101138.75
2023-05-07T15:36:57.682Z,101140.06
2023-05-07T15:39:25.097Z,101139.47
2023-05-07T15:41:51.685Z,101139.91
2023-05-07T15:44:18.107Z,101142.91
2023-05-07T15:46:44.492Z,101143.75
2023-05-07T15:49:11.493Z,101139.91
2023-05-07T15:51:37.936Z,101147.69
2023-05-07T15:54:04.488Z,101136.72
2023-05-07T15:56:33.886Z,101148.53
2023-05-07T15:59:00.749Z,101146.84
2023-05-07T16:01:27.181Z,101144.34
2023-05-07T16:03:53.668Z,101144.34
2023-05-07T16:06:20.166Z,101150.88
2023-05-07T16:08:46.514Z,101152.56
2023-05-07T16:11:12.896Z,101152.56
2023-05-07T16:13:39.269Z,101149.84
2023-05-07T16:16:06.397Z,101148.41
2023-05-07T16:18:33.600Z,101150.75
2023-05-07T16:21:00.964Z,101145.63
2023-05-07T16:23:27.550Z,101150.38
2023-05-07T16:25:53.955Z,101152.94
2023-05-07T16:28:20.593Z,101155.56
2023-05-07T16:30:47.085Z,101152.69
2023-05-07T16:33:13.490Z,101156.72
2023-05-07T16:35:40.042Z,101153.59
2023-05-07T16:38:10.290Z,101156.78
2023-05-07T16:40:40.287Z,101164.44
2023-05-07T16:43:06.658Z,101157.72
2023-05-07T16:45:33.046Z,101161.16
2023-05-07T16:47:59.609Z,101165.91
2023-05-07T16:50:26.083Z,101163.69
2023-05-07T16:52:52.452Z,101169.94
2023-05-07T16:55:18.858Z,101165.47
2023-05-07T16:57:45.365Z,101157.13
2023-05-07T17:00:12.350Z,101148.88
2023-05-07T17:02:38.878Z,101150.66
2023-05-07T17:05:08.479Z,101154.97
2023-05-07T17:07:35.304Z,101154.66
2023-05-07T17:10:02.729Z,101150.56
2023-05-07T17:12:47.764Z,101157.34
2023-05-07T17:15:14.396Z,101157.59
2023-05-07T17:17:41.867Z,101162.69
2023-05-07T17:20:08.885Z,101167.72
2023-05-07T17:22:35.368Z,101178.91
2023-05-07T17:25:04.118Z,101181.00
2023-05-07T17:27:40.072Z,101179.56
2023-05-07T17:30:06.755Z,101183.34
2023-05-07T17:32:35.037Z,101184.22
2023-05-07T17:35:01.820Z,101185.75
2023-05-07T17:37:28.243Z,101186.38
2023-05-07T17:39:54.778Z,101195.25
2023-05-07T17:42:21.280Z,101190.66
2023-05-07T17:44:47.679Z,101194.88
2023-05-07T17:47:14.431Z,101195.56
2023-05-07T17:49:41.876Z,101197.25
2023-05-07T17:52:08.853Z,101203.13
2023-05-07T17:54:35.243Z,101209.25
2023-05-07T17:57:01.670Z,101213.69
2023-05-07T17:59:28.773Z,101220.03
2023-05-07T18:01:55.342Z,101218.97
2023-05-07T18:04:21.888Z,101220.03
2023-05-07T18:06:48.591Z,101218.38
2023-05-07T18:09:15.203Z,101224.28
2023-05-07T18:11:41.636Z,101225.78
2023-05-07T18:14:08.116Z,101228.97
2023-05-07T18:16:34.702Z,101239.03
2023-05-07T18:19:02.239Z,101229.38
2023-05-07T18:21:28.705Z,101239.69
2023-05-07T18:23:55.058Z,101234.25
2023-05-07T18:26:21.572Z,101235.28
2023-05-07T18:28:47.968Z,101246.16
2023-05-07T18:31:14.484Z,101249.91
2023-05-07T18:33:40.887Z,101250.75
2023-05-07T18:36:07.299Z,101246.34
2023-05-07T18:38:34.007Z,101255.75
2023-05-07T18:41:02.809Z,101253.22
2023-05-07T18:43:29.241Z,101254.47
2023-05-07T18:45:55.683Z,101260.13
2023-05-07T18:48:22.172Z,101258.41
2023-05-07T18:50:49.261Z,101265.53
2023-05-07T18:53:15.733Z,101267.34
2023-05-07T18:55:42.172Z,101276.09
2023-05-07T18:58:08.617Z,101276.91
2023-05-07T19:00:35.084Z,101276.88
2023-05-07T19:03:01.618Z,101279.38
2023-05-07T19:05:28.111Z,101284.97
2023-05-07T19:07:54.526Z,101278.69
2023-05-07T19:10:21.259Z,101280.91
2023-05-07T19:12:47.810Z,101286.53
2023-05-07T19:15:14.368Z,101278.69
2023-05-07T19:17:40.755Z,101292.25
2023-05-07T19:22:39.327Z,101296.09
2023-05-07T19:25:06.367Z,101294.31
2023-05-07T19:27:32.712Z,101300.72
2023-05-07T19:29:59.238Z,101303.59
2023-05-07T19:32:26.198Z,101304.56
2023-05-07T19:34:52.854Z,101307.06
2023-05-07T19:37:22.838Z,101306.53
2023-05-07T19:39:49.363Z,101312.53
2023-05-07T19:42:15.918Z,101317.88
2023-05-07T19:44:42.406Z,101324.09
2023-05-07T19:47:09.385Z,101325.50
2023-05-07T19:49:36.013Z,101320.19
2023-05-07T19:52:02.657Z,101319.91
2023-05-07T19:54:29.273Z,101327.78
2023-05-07T19:56:56.841Z,101331.09
2023-05-07T19:59:24.056Z,101327.25
2023-05-07T20:01:50.587Z,101327.97
2023-05-07T20:04:17.058Z,101338.75
2023-05-07T20:06:43.501Z,101334.94
2023-05-07T20:09:12.634Z,101339.22
2023-05-07T20:11:39.795Z,101337.25
2023-05-07T20:14:06.199Z,101333.44
2023-05-07T20:16:33.630Z,101344.66
2023-05-07T20:19:00.403Z,101346.25
2023-05-07T20:21:26.858Z,101347.63
2023-05-07T20:23:54.238Z,101358.03
2023-05-07T20:26:21.262Z,101357.72
2023-05-07T20:28:47.709Z,101359.13
2023-05-07T20:31:14.263Z,101355.94
2023-05-07T20:33:41.000Z,101363.41
2023-05-07T20:36:08.213Z,101367.53
2023-05-07T20:38:34.529Z,101364.31
2023-05-07T20:41:12.609Z,101370.28
2023-05-07T20:43:39.018Z,101368.16
2023-05-07T20:46:07.553Z,101373.94
2023-05-07T20:48:34.292Z,101379.69
2023-05-07T20:51:01.843Z,101378.19
2023-05-07T20:53:29.839Z,101383.81
2023-05-07T20:55:56.887Z,101390.63
2023-05-07T20:58:26.531Z,101384.56
2023-05-07T21:00:53.752Z,101389.09
2023-05-07T21:03:20.670Z,101386.59
2023-05-07T21:05:54.154Z,101393.69
2023-05-07T21:08:21.028Z,101387.44
2023-05-07T21:10:47.866Z,101385.75
2023-05-07T21:13:14.965Z,101383.88
2023-05-07T21:15:42.914Z,101392.84
2023-05-07T21:18:12.665Z,101392.84
2023-05-07T21:20:39.143Z,101403.69
2023-05-07T21:23:05.780Z,101395.91
2023-05-07T21:25:32.243Z,101397.94
2023-05-07T21:27:58.619Z,101395.59
2023-05-07T21:30:25.388Z,101396.81
2023-05-07T21:32:52.928Z,101402.38
2023-05-07T21:35:19.664Z,101396.50
2023-05-07T21:37:46.124Z,101407.50
2023-05-07T21:40:13.162Z,101405.00
2023-05-07T21:42:39.909Z,101402.44
2023-05-07T21:45:06.766Z,101406.19
2023-05-07T21:47:33.378Z,101408.41
2023-05-07T21:50:00.981Z,101407.75
2023-05-07T21:52:27.399Z,101404.38
2023-05-07T21:54:53.952Z,101408.44
2023-05-07T21:57:21.108Z,101406.09
2023-05-07T21:59:47.598Z,101402.09
2023-05-07T22:02:13.988Z,101403.59
2023-05-07T22:04:40.473Z,101406.88
2023-05-07T22:07:06.864Z,101406.56
2023-05-07T22:09:33.245Z,101411.47
2023-05-07T22:11:59.659Z,101411.00
2023-05-07T22:14:26.102Z,101411.50
2023-05-07T22:16:52.608Z,101412.69
2023-05-07T22:19:19.093Z,101408.50
2023-05-07T22:21:45.608Z,101406.97
2023-05-07T22:24:12.548Z,101408.38
2023-05-07T22:26:38.901Z,101404.97
2023-05-07T22:29:05.353Z,101401.97
2023-05-07T22:31:31.781Z,101395.22
2023-05-07T22:33:58.302Z,101401.81
2023-05-07T22:36:24.724Z,101402.16
2023-05-07T22:38:51.160Z,101403.19
2023-05-07T22:41:17.717Z,101400.63
2023-05-07T22:43:44.135Z,101407.09
2023-05-07T22:46:10.810Z,101411.81
2023-05-07T22:48:37.301Z,101410.13
2023-05-07T22:51:04.047Z,101409.47
2023-05-07T22:53:30.894Z,101411.13
2023-05-07T22:55:57.641Z,101416.53
2023-05-07T22:58:24.195Z,101421.97
2023-05-07T23:00:50.635Z,101412.16
2023-05-07T23:03:17.049Z,101404.06
2023-05-07T23:05:44.235Z,101408.63
2023-05-07T23:08:11.362Z,101412.34
2023-05-07T23:10:37.772Z,101416.91
2023-05-07T23:13:04.350Z,101416.25
2023-05-07T23:15:31.892Z,101410.13
2023-05-07T23:17:58.333Z,101413.19
2023-05-07T23:20:24.966Z,101410.81
2023-05-07T23:22:51.379Z,101412.88
2023-05-07T23:25:18.129Z,101418.59
2023-05-07T23:27:44.555Z,101409.84
2023-05-07T23:30:11.715Z,101411.03
2023-05-07T23:32:38.347Z,101414.91
2023-05-07T23:35:05.212Z,101419.63
2023-05-07T23:37:31.637Z,101413.56
2023-05-07T23:39:57.967Z,101410.34
2023-05-07T23:42:24.408Z,101419.66
2023-05-07T23:44:50.750Z,101409.19
2023-05-07T23:47:17.589Z,101416.63
2023-05-07T23:49:43.992Z,101409.53
2023-05-07T23:52:10.457Z,101413.44
2023-05-07T23:54:37.176Z,101404.28
2023-05-07T23:57:04.462Z,101408.84
2023-05-07T23:59:30.856Z,101402.63
